Time;durP1;ratioP1;P1;durP2;ratioP2;P2;SDS_P1;SDS_P2;PMS_P1;PMS_P2;Temp;Humidity;BMP_temperature;BMP_pressure;BME280_temperature;BME280_humidity;BME280_pressure;Samples;Min_cycle;Max_cycle;Signal;HPM_P1;HPM_P2
2023/08/16 00:01:04;;;;;;;0.00;0.00;;;20.30;99.90;;;;;;5091636;28;20639;-61
2023/08/16 00:03:30;;;;;;;0.00;0.00;;;20.30;99.90;;;;;;5091765;28;20650;-61
2023/08/16 00:05:55;;;;;;;0.00;0.00;;;20.30;99.90;;;;;;5091735;28;20195;-61
2023/08/16 00:08:21;;;;;;;0.40;0.10;;;20.30;99.90;;;;;;5091566;28;20180;-61
2023/08/16 00:10:46;;;;;;;0.00;0.00;;;20.30;99.90;;;;;;5091700;28;20260;-61
2023/08/16 00:13:12;;;;;;;0.00;0.00;;;20.30;99.90;;;;;;5091425;28;20195;-61
2023/08/16 00:15:38;;;;;;;0.00;0.00;;;20.30;99.90;;;;;;5091664;28;20639;-61
2023/08/16 00:18:04;;;;;;;0.00;0.00;;;20.30;99.90;;;;;;5091465;28;20304;-61
2023/08/16 00:20:30;;;;;;;0.00;0.00;;;20.30;99.90;;;;;;5091578;28;20271;-61
2023/08/16 00:22:55;;;;;;;0.00;0.00;;;20.30;99.90;;;;;;5091428;28;20208;-60
2023/08/16 00:25:21;;;;;;;0.10;0.10;;;20.30;99.90;;;;;;5091385;28;20183;-60
2023/08/16 00:27:48;;;;;;;0.08;0.08;;;20.20;99.90;;;;;;5091522;28;20172;-60
2023/08/16 00:30:14;;;;;;;0.00;0.00;;;20.20;99.90;;;;;;5091022;28;20228;-61
2023/08/16 00:32:41;;;;;;;0.00;0.00;;;20.20;99.90;;;;;;5091267;28;20578;-61
2023/08/16 00:35:06;;;;;;;0.00;0.00;;;20.20;99.90;;;;;;5091198;28;20173;-60
2023/08/16 00:37:32;;;;;;;0.00;0.00;;;20.20;99.90;;;;;;5091147;28;20237;-60
2023/08/16 00:39:58;;;;;;;0.00;0.00;;;20.20;99.90;;;;;;5091124;28;20582;-61
2023/08/16 00:42:23;;;;;;;0.00;0.00;;;20.20;99.90;;;;;;5091257;28;20176;-61
2023/08/16 00:44:49;;;;;;;0.00;0.00;;;20.20;99.90;;;;;;5091339;28;20180;-61
2023/08/16 00:47:16;;;;;;;0.00;0.00;;;20.20;99.90;;;;;;5091086;28;20192;-61
2023/08/16 00:49:42;;;;;;;0.00;0.00;;;20.20;99.90;;;;;;5091295;28;20261;-61
2023/08/16 00:52:08;;;;;;;0.00;0.00;;;20.20;99.90;;;;;;5091138;28;20227;-61
2023/08/16 00:54:34;;;;;;;0.00;0.00;;;20.20;99.90;;;;;;5091109;28;20180;-61
2023/08/16 00:57:00;;;;;;;0.00;0.00;;;20.20;99.90;;;;;;5091122;28;20694;-61
2023/08/16 00:59:27;;;;;;;0.00;0.00;;;20.20;99.90;;;;;;5093586;28;20631;-61
2023/08/16 01:01:52;;;;;;;0.00;0.00;;;20.20;99.90;;;;;;5094939;28;20253;-61
2023/08/16 01:04:22;;;;;;;0.00;0.00;;;20.20;99.90;;;;;;5094917;28;20640;-61
2023/08/16 01:06:48;;;;;;;0.00;0.00;;;20.10;99.90;;;;;;5095058;28;20180;-60
2023/08/16 01:09:13;;;;;;;0.00;0.00;;;20.10;99.90;;;;;;5094838;28;20546;-61
2023/08/16 01:11:47;;;;;;;0.00;0.00;;;20.00;99.90;;;;;;5094865;28;20527;-61
2023/08/16 01:14:34;;;;;;;0.00;0.00;;;20.00;99.90;;;;;;5094528;28;20218;-61
2023/08/16 01:17:00;;;;;;;0.00;0.00;;;19.90;99.90;;;;;;5094803;28;20176;-61
2023/08/16 01:19:29;;;;;;;0.00;0.00;;;19.90;99.90;;;;;;5094903;28;20333;-61
2023/08/16 01:22:12;;;;;;;0.00;0.00;;;19.90;99.90;;;;;;5094661;28;20261;-61
2023/08/16 01:24:59;;;;;;;0.00;0.00;;;19.90;99.90;;;;;;5094724;28;20172;-61
2023/08/16 01:27:26;;;;;;;0.00;0.00;;;19.90;99.90;;;;;;5094580;28;20180;-61
2023/08/16 01:29:53;;;;;;;0.00;0.00;;;19.90;99.90;;;;;;5094244;28;20600;-61
2023/08/16 01:32:21;;;;;;;0.00;0.00;;;19.80;99.90;;;;;;5094332;28;20716;-61
2023/08/16 01:34:47;;;;;;;0.00;0.00;;;19.80;99.90;;;;;;5094599;28;20565;-61
2023/08/16 01:37:12;;;;;;;0.00;0.00;;;19.80;99.90;;;;;;5094364;28;20183;-61
2023/08/16 01:39:38;;;;;;;0.00;0.00;;;19.80;99.90;;;;;;5094738;28;20200;-61
2023/08/16 01:42:05;;;;;;;0.00;0.00;;;19.80;99.90;;;;;;5094345;28;20700;-61
2023/08/16 01:44:32;;;;;;;0.20;0.20;;;19.80;99.90;;;;;;5094254;28;20187;-60
2023/08/16 01:46:59;;;;;;;0.00;0.00;;;19.80;99.90;;;;;;5094048;28;20264;-61
2023/08/16 01:49:26;;;;;;;0.00;0.00;;;19.80;99.90;;;;;;5094286;28;20301;-61
2023/08/16 01:51:52;;;;;;;0.00;0.00;;;19.80;99.90;;;;;;5094127;28;20596;-60
2023/08/16 01:54:17;;;;;;;0.00;0.00;;;19.80;99.90;;;;;;5094116;28;20218;-60
2023/08/16 01:56:43;;;;;;;0.00;0.00;;;19.80;99.90;;;;;;5094139;28;20180;-61
2023/08/16 01:59:09;;;;;;;0.00;0.00;;;19.80;99.90;;;;;;5094013;28;20187;-61
2023/08/16 02:01:34;;;;;;;0.00;0.00;;;19.90;99.90;;;;;;5094025;28;20218;-61
2023/08/16 02:04:00;;;;;;;0.00;0.00;;;19.80;99.90;;;;;;5093881;28;20681;-61
2023/08/16 02:06:25;;;;;;;0.17;0.17;;;19.80;99.90;;;;;;5092486;28;20168;-61
2023/08/16 02:08:52;;;;;;;0.00;0.00;;;19.80;99.90;;;;;;5094091;28;20184;-61
2023/08/16 02:11:17;;;;;;;0.05;0.05;;;19.80;99.90;;;;;;5092350;28;20171;-61
2023/08/16 02:13:43;;;;;;;0.00;0.00;;;19.80;99.90;;;;;;5093691;28;20220;-61
2023/08/16 02:16:08;;;;;;;0.00;0.00;;;19.80;99.90;;;;;;5093692;28;20195;-61
2023/08/16 02:18:34;;;;;;;0.00;0.00;;;19.80;99.90;;;;;;5093724;28;20180;-61
2023/08/16 02:20:59;;;;;;;0.00;0.00;;;19.80;99.90;;;;;;5093620;28;20180;-60
2023/08/16 02:23:25;;;;;;;0.00;0.00;;;19.70;99.90;;;;;;5093524;28;20513;-61
2023/08/16 02:25:51;;;;;;;0.00;0.00;;;19.70;99.90;;;;;;5093634;28;20321;-60
2023/08/16 02:28:16;;;;;;;0.00;0.00;;;19.60;99.90;;;;;;5091983;28;20439;-61
2023/08/16 02:30:42;;;;;;;0.00;0.00;;;19.60;99.90;;;;;;5093452;28;20649;-61
2023/08/16 02:33:08;;;;;;;0.00;0.00;;;19.60;99.90;;;;;;5093219;28;20204;-61
2023/08/16 02:35:33;;;;;;;0.00;0.00;;;19.60;99.90;;;;;;5093465;28;20255;-60
2023/08/16 02:37:59;;;;;;;0.00;0.00;;;19.60;99.90;;;;;;5093207;28;20655;-61
2023/08/16 02:40:24;;;;;;;0.00;0.00;;;19.60;99.90;;;;;;5093202;28;20168;-61
2023/08/16 02:42:50;;;;;;;0.00;0.00;;;19.60;99.90;;;;;;5093279;28;20658;-61
2023/08/16 02:45:17;;;;;;;0.00;0.00;;;19.50;99.90;;;;;;5093107;28;20180;-61
2023/08/16 02:47:42;;;;;;;0.00;0.00;;;19.50;99.90;;;;;;5093036;28;20176;-61
2023/08/16 02:50:08;;;;;;;0.00;0.00;;;19.50;99.90;;;;;;5092786;28;20259;-61
2023/08/16 02:52:34;;;;;;;0.00;0.00;;;19.50;99.90;;;;;;5092830;28;20207;-61
2023/08/16 02:54:59;;;;;;;0.00;0.00;;;19.50;99.90;;;;;;5092843;28;20623;-61
2023/08/16 02:57:25;;;;;;;0.00;0.00;;;19.50;99.90;;;;;;5092665;28;20175;-61
2023/08/16 02:59:51;;;;;;;0.00;0.00;;;19.50;99.90;;;;;;5092843;28;20188;-61
2023/08/16 03:02:17;;;;;;;0.00;0.00;;;19.50;99.90;;;;;;5092635;28;20271;-61
2023/08/16 03:04:43;;;;;;;0.00;0.00;;;19.50;99.90;;;;;;5092574;28;20263;-61
2023/08/16 03:07:10;;;;;;;0.00;0.00;;;19.50;99.90;;;;;;5091337;28;20176;-61
2023/08/16 03:09:36;;;;;;;0.00;0.00;;;19.50;99.90;;;;;;5092597;28;20183;-61
2023/08/16 03:12:02;;;;;;;0.00;0.00;;;19.40;99.90;;;;;;5092404;28;20530;-61
2023/08/16 03:14:28;;;;;;;0.00;0.00;;;19.40;99.90;;;;;;5092502;28;20239;-61
2023/08/16 03:16:54;;;;;;;0.00;0.00;;;19.40;99.90;;;;;;5092536;28;20623;-61
2023/08/16 03:19:20;;;;;;;0.00;0.00;;;19.40;99.90;;;;;;5091235;28;20187;-61
2023/08/16 03:21:45;;;;;;;0.00;0.00;;;19.40;99.90;;;;;;5091922;28;20172;-60
2023/08/16 03:24:11;;;;;;;0.00;0.00;;;19.40;99.90;;;;;;5092400;28;20639;-60
2023/08/16 03:26:37;;;;;;;0.00;0.00;;;19.40;99.90;;;;;;5092471;28;20187;-60
2023/08/16 03:29:03;;;;;;;0.00;0.00;;;19.40;99.90;;;;;;5091933;28;20224;-61
2023/08/16 03:31:29;;;;;;;0.00;0.00;;;19.30;99.90;;;;;;5092441;28;20187;-61
2023/08/16 03:33:54;;;;;;;0.00;0.00;;;19.20;99.90;;;;;;5092198;28;20220;-61
2023/08/16 03:36:20;;;;;;;0.00;0.00;;;19.20;99.90;;;;;;5092298;28;20175;-61
2023/08/16 03:38:46;;;;;;;0.00;0.00;;;19.20;99.90;;;;;;5092202;28;20171;-60
2023/08/16 03:41:11;;;;;;;0.08;0.08;;;19.20;99.90;;;;;;5092094;28;20168;-61
2023/08/16 03:43:37;;;;;;;0.00;0.00;;;19.20;99.90;;;;;;5092225;28;20575;-61
2023/08/16 03:46:05;;;;;;;0.00;0.00;;;19.20;99.90;;;;;;5092045;28;20168;-60
2023/08/16 03:48:31;;;;;;;0.00;0.00;;;19.20;99.90;;;;;;5092180;28;20195;-61
2023/08/16 03:50:57;;;;;;;0.00;0.00;;;19.20;99.90;;;;;;5091986;28;20673;-61
2023/08/16 03:53:23;;;;;;;0.00;0.00;;;19.10;99.90;;;;;;5091830;28;20247;-61
2023/08/16 03:55:55;;;;;;;0.00;0.00;;;19.10;99.90;;;;;;5092107;28;20203;-61
2023/08/16 03:58:20;;;;;;;0.00;0.00;;;19.10;99.90;;;;;;5092092;28;20188;-61
2023/08/16 04:00:51;;;;;;;0.00;0.00;;;19.00;99.90;;;;;;5091853;28;20184;-61
2023/08/16 04:03:16;;;;;;;0.00;0.00;;;19.00;99.90;;;;;;5091780;28;20184;-61
2023/08/16 04:05:42;;;;;;;0.00;0.00;;;19.10;99.90;;;;;;5091553;28;20188;-61
2023/08/16 04:08:07;;;;;;;0.00;0.00;;;19.10;99.90;;;;;;5091642;28;20714;-61
2023/08/16 04:10:33;;;;;;;0.00;0.00;;;19.10;99.90;;;;;;5091753;28;20229;-61
2023/08/16 04:12:58;;;;;;;0.10;0.10;;;19.20;99.90;;;;;;5091487;28;20799;-61
2023/08/16 04:15:24;;;;;;;0.00;0.00;;;19.20;99.90;;;;;;5091576;28;20198;-61
2023/08/16 04:17:49;;;;;;;0.00;0.00;;;19.30;99.90;;;;;;5091647;28;20353;-61
2023/08/16 04:20:15;;;;;;;0.00;0.00;;;19.20;99.90;;;;;;5091645;28;20254;-61
2023/08/16 04:22:41;;;;;;;0.00;0.00;;;19.20;99.90;;;;;;5091727;28;20174;-61
2023/08/16 04:25:08;;;;;;;0.00;0.00;;;19.20;99.90;;;;;;5091377;28;20180;-60
2023/08/16 04:27:33;;;;;;;0.00;0.00;;;19.30;99.90;;;;;;5091649;28;20692;-60
2023/08/16 04:29:59;;;;;;;0.13;0.13;;;19.30;99.90;;;;;;5091407;28;20216;-60
2023/08/16 04:32:24;;;;;;;0.00;0.00;;;19.30;99.90;;;;;;5091322;28;20179;-61
2023/08/16 04:34:50;;;;;;;0.10;0.10;;;19.30;99.90;;;;;;5094617;28;20255;-60
2023/08/16 04:37:16;;;;;;;0.00;0.00;;;19.40;99.90;;;;;;5095114;28;20267;-60
2023/08/16 04:39:41;;;;;;;0.00;0.00;;;19.40;99.90;;;;;;5095182;28;20212;-61
2023/08/16 04:42:07;;;;;;;0.00;0.00;;;19.40;99.90;;;;;;5094988;28;20573;-61
2023/08/16 04:44:32;;;;;;;0.00;0.00;;;19.50;99.90;;;;;;5095181;28;20538;-60
2023/08/16 04:46:58;;;;;;;0.00;0.00;;;19.50;99.90;;;;;;5095031;28;20696;-61
2023/08/16 04:49:26;;;;;;;0.00;0.00;;;19.60;99.90;;;;;;5094859;28;20198;-60
2023/08/16 04:51:52;;;;;;;0.00;0.00;;;19.60;99.90;;;;;;5095085;28;20183;-61
2023/08/16 04:54:18;;;;;;;0.15;0.15;;;19.70;99.90;;;;;;5094751;28;20223;-60
2023/08/16 04:56:44;;;;;;;0.00;0.00;;;19.70;99.90;;;;;;5094841;28;20211;-60
2023/08/16 04:59:10;;;;;;;0.00;0.00;;;19.80;99.90;;;;;;5094789;28;20336;-61
2023/08/16 05:01:36;;;;;;;0.00;0.00;;;19.90;99.90;;;;;;5094857;28;20168;-61
2023/08/16 05:04:03;;;;;;;0.00;0.00;;;19.90;99.90;;;;;;5094558;28;20187;-61
2023/08/16 05:06:30;;;;;;;0.00;0.00;;;19.90;99.90;;;;;;5094832;28;20211;-61
2023/08/16 05:08:55;;;;;;;0.00;0.00;;;20.00;99.90;;;;;;5094695;28;20256;-61
2023/08/16 05:11:21;;;;;;;0.00;0.00;;;20.10;99.90;;;;;;5094728;28;20184;-61
2023/08/16 05:13:46;;;;;;;0.00;0.00;;;20.30;99.90;;;;;;5094470;28;20208;-61
2023/08/16 05:16:12;;;;;;;0.00;0.00;;;20.60;99.90;;;;;;5094323;28;20176;-61
2023/08/16 05:18:37;;;;;;;0.00;0.00;;;20.90;99.90;;;;;;5094428;28;20273;-61
2023/08/16 05:21:03;;;;;;;0.00;0.00;;;21.30;99.90;;;;;;5094225;28;20172;-61
2023/08/16 05:23:29;;;;;;;0.00;0.00;;;21.60;99.90;;;;;;5094429;28;20191;-61
2023/08/16 05:25:55;;;;;;;0.00;0.00;;;22.00;99.90;;;;;;5094209;28;20167;-61
2023/08/16 05:28:20;;;;;;;0.00;0.00;;;22.40;99.90;;;;;;5094056;28;20304;-61
2023/08/16 05:30:46;;;;;;;0.00;0.00;;;22.80;99.90;;;;;;5094352;28;20207;-61
2023/08/16 05:33:11;;;;;;;0.00;0.00;;;23.30;99.90;;;;;;5094237;28;20211;-61
2023/08/16 05:35:37;;;;;;;0.00;0.00;;;23.70;99.90;;;;;;5094276;28;20632;-62
2023/08/16 05:38:04;;;;;;;0.10;0.10;;;24.10;99.90;;;;;;5093886;28;20184;-62
2023/08/16 05:40:29;;;;;;;0.00;0.00;;;24.50;99.90;;;;;;5094126;28;20165;-62
2023/08/16 05:42:55;;;;;;;0.00;0.00;;;24.80;99.90;;;;;;5093763;28;20673;-61
2023/08/16 05:45:25;;;;;;;0.00;0.00;;;25.20;99.90;;;;;;5093919;28;20184;-61
2023/08/16 05:47:52;;;;;;;0.00;0.00;;;25.40;99.90;;;;;;5093948;28;20180;-61
2023/08/16 05:50:17;;;;;;;0.05;0.05;;;25.40;99.90;;;;;;5093915;28;20191;-61
2023/08/16 05:52:43;;;;;;;0.00;0.00;;;25.20;99.90;;;;;;5093660;28;20204;-61
2023/08/16 05:55:09;;;;;;;0.00;0.00;;;24.90;99.90;;;;;;5093818;28;20184;-61
2023/08/16 05:57:34;;;;;;;0.00;0.00;;;24.60;99.90;;;;;;5093918;28;20176;-61
2023/08/16 06:00:00;;;;;;;0.00;0.00;;;24.30;99.90;;;;;;5093756;28;20176;-61
2023/08/16 06:02:26;;;;;;;0.05;0.05;;;24.10;99.90;;;;;;5093535;28;20172;-61
2023/08/16 06:04:52;;;;;;;0.10;0.00;;;24.00;99.90;;;;;;5093640;28;20179;-61
2023/08/16 06:07:17;;;;;;;0.00;0.00;;;24.00;99.90;;;;;;5093702;28;20176;-61
2023/08/16 06:09:43;;;;;;;0.00;0.00;;;24.10;99.90;;;;;;5093501;28;20191;-61
2023/08/16 06:12:08;;;;;;;0.00;0.00;;;24.30;99.90;;;;;;5093497;28;20655;-61
2023/08/16 06:14:34;;;;;;;0.00;0.00;;;24.60;99.90;;;;;;5093442;28;20295;-61
2023/08/16 06:17:00;;;;;;;0.00;0.00;;;24.90;99.90;;;;;;5093384;28;20171;-61
2023/08/16 06:19:25;;;;;;;0.00;0.00;;;25.20;99.90;;;;;;5093332;28;20205;-61
2023/08/16 06:21:51;;;;;;;0.00;0.00;;;25.60;99.90;;;;;;5093417;28;20183;-61
2023/08/16 06:24:16;;;;;;;0.00;0.00;;;26.00;99.90;;;;;;5093246;28;20176;-61
2023/08/16 06:26:42;;;;;;;0.00;0.00;;;26.30;99.90;;;;;;5093158;28;20548;-61
2023/08/16 06:29:07;;;;;;;0.00;0.00;;;26.50;99.90;;;;;;5093003;28;20231;-59
2023/08/16 06:31:33;;;;;;;0.00;0.00;;;26.60;99.90;;;;;;5093225;28;20180;-60
2023/08/16 06:34:00;;;;;;;0.00;0.00;;;26.80;99.90;;;;;;5091617;28;20215;-62
2023/08/16 06:36:26;;;;;;;0.00;0.00;;;27.10;99.90;;;;;;5093074;28;20184;-61
2023/08/16 06:38:53;;;;;;;0.10;0.10;;;27.50;99.90;;;;;;5093062;28;20195;-61
2023/08/16 06:41:19;;;;;;;0.00;0.00;;;28.10;99.90;;;;;;5092933;28;20504;-61
2023/08/16 06:43:44;;;;;;;0.00;0.00;;;28.80;99.90;;;;;;5092893;28;20183;-61
2023/08/16 06:46:10;;;;;;;0.00;0.00;;;29.40;99.90;;;;;;5092961;28;20655;-61
2023/08/16 06:48:36;;;;;;;0.00;0.00;;;29.90;99.90;;;;;;5093037;28;20184;-61
2023/08/16 06:51:02;;;;;;;0.03;0.03;;;30.30;99.90;;;;;;5092560;28;20191;-61
2023/08/16 06:53:28;;;;;;;0.00;0.00;;;30.80;98.50;;;;;;5092704;28;20196;-61
2023/08/16 06:55:55;;;;;;;0.00;0.00;;;30.90;97.40;;;;;;5092156;28;20584;-61
2023/08/16 06:58:20;;;;;;;0.00;0.00;;;30.70;96.90;;;;;;5092522;28;20861;-61
2023/08/16 07:00:49;;;;;;;0.00;0.00;;;30.70;97.50;;;;;;5092541;28;20207;-61
2023/08/16 07:03:15;;;;;;;0.00;0.00;;;30.90;96.60;;;;;;5092512;28;20180;-61
2023/08/16 07:05:40;;;;;;;0.00;0.00;;;31.30;96.10;;;;;;5092605;28;20176;-61
2023/08/16 07:08:06;;;;;;;0.03;0.03;;;31.20;95.50;;;;;;5092323;28;20191;-62
2023/08/16 07:10:32;;;;;;;0.00;0.00;;;30.80;95.90;;;;;;5092524;28;20259;-61
2023/08/16 07:12:57;;;;;;;0.10;0.10;;;30.10;96.00;;;;;;5092335;28;20200;-61
2023/08/16 07:15:23;;;;;;;0.00;0.00;;;29.60;97.00;;;;;;5092255;28;20785;-61
2023/08/16 07:17:48;;;;;;;0.00;0.00;;;29.10;97.40;;;;;;5092401;28;20204;-61
2023/08/16 07:20:14;;;;;;;0.00;0.00;;;28.50;98.40;;;;;;5092438;28;20266;-61
2023/08/16 07:22:40;;;;;;;0.00;0.00;;;28.00;99.20;;;;;;5092669;28;20183;-61
2023/08/16 07:25:06;;;;;;;0.00;0.00;;;27.40;99.90;;;;;;5092261;28;20530;-61
2023/08/16 07:27:33;;;;;;;0.00;0.00;;;27.00;99.90;;;;;;5092500;28;20176;-61
2023/08/16 07:29:59;;;;;;;0.00;0.00;;;26.60;99.90;;;;;;5092179;28;20247;-61
2023/08/16 07:32:24;;;;;;;0.00;0.00;;;26.30;99.90;;;;;;5092149;28;20646;-62
2023/08/16 07:34:50;;;;;;;0.00;0.00;;;26.10;99.90;;;;;;5092357;28;20176;-61
2023/08/16 07:37:17;;;;;;;0.00;0.00;;;25.90;99.90;;;;;;5092257;28;20168;-61
2023/08/16 07:39:43;;;;;;;0.00;0.00;;;25.70;99.90;;;;;;5092283;28;20199;-61
2023/08/16 07:42:08;;;;;;;0.00;0.00;;;25.60;99.90;;;;;;5092282;28;20168;-61
2023/08/16 07:44:34;;;;;;;0.00;0.00;;;25.30;99.90;;;;;;5092269;28;20172;-61
2023/08/16 07:47:03;;;;;;;0.43;0.43;;;25.20;99.90;;;;;;5090853;28;20678;-61
2023/08/16 07:49:29;;;;;;;0.00;0.00;;;25.00;99.90;;;;;;5092356;28;20199;-61
2023/08/16 07:51:58;;;;;;;0.00;0.00;;;24.90;99.90;;;;;;5091974;28;20263;-61
2023/08/16 07:54:24;;;;;;;0.00;0.00;;;24.70;99.90;;;;;;5091779;28;20215;-60
2023/08/16 07:56:51;;;;;;;0.00;0.00;;;24.60;99.90;;;;;;5092039;28;20176;-60
2023/08/16 07:59:17;;;;;;;0.00;0.00;;;24.50;99.90;;;;;;5091890;28;20207;-60
2023/08/16 08:01:43;;;;;;;0.05;0.05;;;24.50;99.90;;;;;;5091929;28;20578;-60
2023/08/16 08:04:09;;;;;;;0.00;0.00;;;24.50;99.90;;;;;;5091898;28;20164;-59
2023/08/16 08:06:35;;;;;;;0.08;0.08;;;24.70;99.90;;;;;;5091770;28;20635;-60
2023/08/16 08:09:01;;;;;;;0.00;0.00;;;24.80;99.90;;;;;;5091798;28;20183;-60
2023/08/16 08:11:26;;;;;;;0.00;0.00;;;25.00;99.90;;;;;;5091823;28;20640;-60
2023/08/16 08:13:52;;;;;;;0.00;0.00;;;25.10;99.90;;;;;;5091778;28;20215;-60
2023/08/16 08:16:17;;;;;;;0.00;0.00;;;25.30;99.90;;;;;;5091734;28;20534;-60
2023/08/16 08:18:43;;;;;;;0.00;0.00;;;25.70;99.90;;;;;;5091700;28;20175;-60
2023/08/16 08:21:09;;;;;;;0.10;0.10;;;25.90;99.90;;;;;;5091719;28;20243;-60
2023/08/16 08:23:35;;;;;;;0.03;0.03;;;26.10;99.90;;;;;;5091826;28;20630;-60
2023/08/16 08:26:00;;;;;;;0.00;0.00;;;26.20;99.90;;;;;;5091626;28;20271;-60
2023/08/16 08:28:26;;;;;;;0.00;0.00;;;26.20;99.90;;;;;;5091330;28;20220;-60
2023/08/16 08:30:52;;;;;;;0.00;0.00;;;26.10;99.90;;;;;;5091781;28;20568;-61
2023/08/16 08:33:18;;;;;;;0.00;0.00;;;26.00;99.90;;;;;;5091593;28;20219;-61
2023/08/16 08:35:44;;;;;;;0.00;0.00;;;26.30;99.90;;;;;;5091590;28;20194;-61
2023/08/16 08:38:09;;;;;;;0.00;0.00;;;26.80;99.90;;;;;;5091584;28;20183;-60
2023/08/16 08:40:35;;;;;;;0.00;0.00;;;27.30;99.90;;;;;;5091621;28;20175;-61
2023/08/16 08:43:03;;;;;;;0.00;0.00;;;27.80;99.90;;;;;;5091519;28;20548;-61
2023/08/16 08:45:30;;;;;;;0.00;0.00;;;28.40;99.90;;;;;;5091591;28;20238;-60
2023/08/16 08:47:59;;;;;;;0.00;0.00;;;29.00;99.90;;;;;;5091496;28;20570;-60
2023/08/16 08:50:28;;;;;;;0.03;0.03;;;29.50;99.90;;;;;;5091324;28;20179;-61
2023/08/16 08:52:56;;;;;;;0.00;0.00;;;29.70;99.90;;;;;;5091406;28;20203;-61
2023/08/16 08:55:25;;;;;;;0.00;0.00;;;29.90;99.90;;;;;;5091242;28;20188;-61
2023/08/16 08:57:55;;;;;;;0.00;0.00;;;30.40;99.90;;;;;;5091612;28;20172;-61
2023/08/16 09:00:21;;;;;;;0.00;0.00;;;30.90;99.10;;;;;;5091590;28;20180;-60
2023/08/16 09:02:52;;;;;;;0.00;0.00;;;31.50;98.20;;;;;;5091471;28;20534;-61
2023/08/16 09:05:21;;;;;;;0.00;0.00;;;31.80;97.30;;;;;;5091431;28;20185;-61
2023/08/16 09:07:48;;;;;;;0.00;0.00;;;32.00;96.70;;;;;;5091429;28;20176;-61
2023/08/16 09:10:15;;;;;;;0.00;0.00;;;32.20;95.80;;;;;;5091189;28;20652;-61
2023/08/16 09:12:40;;;;;;;0.00;0.00;;;32.30;95.60;;;;;;5090029;28;20183;-61
2023/08/16 09:15:07;;;;;;;0.00;0.00;;;32.50;95.10;;;;;;5091106;28;20181;-61
2023/08/16 09:17:34;;;;;;;0.00;0.00;;;32.70;94.70;;;;;;5091232;28;20184;-61
2023/08/16 09:20:00;;;;;;;0.00;0.00;;;32.80;94.20;;;;;;5092787;28;20190;-61
2023/08/16 09:22:27;;;;;;;0.00;0.00;;;32.80;93.90;;;;;;5094907;28;20179;-61
2023/08/16 09:24:56;;;;;;;0.00;0.00;;;33.10;94.10;;;;;;5094872;28;20172;-61
2023/08/16 09:27:25;;;;;;;0.00;0.00;;;33.10;93.00;;;;;;5094751;28;20237;-61
2023/08/16 09:29:57;;;;;;;0.00;0.00;;;33.00;93.20;;;;;;5094602;28;20242;-61
2023/08/16 09:32:26;;;;;;;0.40;0.40;;;33.10;92.10;;;;;;5094601;28;20187;-61
2023/08/16 09:34:53;;;;;;;0.00;0.00;;;33.00;92.40;;;;;;5094474;28;20678;-61
2023/08/16 09:37:19;;;;;;;0.00;0.00;;;32.80;92.40;;;;;;5094702;28;20531;-61
2023/08/16 09:39:55;;;;;;;0.00;0.00;;;32.50;92.80;;;;;;5094439;28;20536;-61
2023/08/16 09:42:21;;;;;;;0.00;0.00;;;32.20;93.00;;;;;;5094481;28;20218;-61
2023/08/16 09:44:47;;;;;;;0.00;0.00;;;31.90;92.70;;;;;;5094431;28;20173;-61
2023/08/16 09:47:14;;;;;;;0.00;0.00;;;31.60;93.10;;;;;;5094487;28;20249;-61
2023/08/16 09:49:39;;;;;;;0.00;0.00;;;31.70;93.60;;;;;;5094372;28;20710;-61
2023/08/16 09:52:11;;;;;;;0.00;0.00;;;32.10;93.80;;;;;;5094200;28;20271;-61
2023/08/16 09:54:37;;;;;;;0.00;0.00;;;32.20;92.50;;;;;;5094319;28;20208;-61
2023/08/16 09:57:04;;;;;;;0.10;0.10;;;32.30;93.20;;;;;;5094075;28;20192;-61
2023/08/16 09:59:31;;;;;;;0.15;0.15;;;32.50;92.60;;;;;;5094352;28;20265;-61
2023/08/16 10:02:00;;;;;;;0.00;0.00;;;32.50;92.00;;;;;;5094139;28;20175;-61
2023/08/16 10:04:27;;;;;;;0.00;0.00;;;32.50;92.00;;;;;;5093999;28;20183;-61
2023/08/16 10:06:54;;;;;;;0.00;0.00;;;32.30;91.80;;;;;;5093970;28;20176;-61
2023/08/16 10:09:20;;;;;;;0.00;0.00;;;32.30;92.40;;;;;;5094206;28;20188;-61
2023/08/16 10:11:48;;;;;;;0.03;0.03;;;32.50;92.50;;;;;;5093991;28;20180;-61
2023/08/16 10:14:14;;;;;;;0.00;0.00;;;32.70;92.00;;;;;;5093699;28;20220;-61
2023/08/16 10:16:42;;;;;;;0.08;0.08;;;32.90;92.20;;;;;;5093936;28;20172;-61
2023/08/16 10:19:12;;;;;;;0.00;0.00;;;33.20;91.30;;;;;;5093823;28;20596;-61
2023/08/16 10:21:42;;;;;;;0.00;0.00;;;33.20;90.20;;;;;;5093905;28;20190;-61
2023/08/16 10:24:11;;;;;;;0.05;0.05;;;33.10;90.40;;;;;;5093726;28;20204;-60
2023/08/16 10:26:38;;;;;;;0.00;0.00;;;32.80;90.10;;;;;;5093856;28;20200;-61
2023/08/16 10:29:08;;;;;;;0.40;0.40;;;32.80;90.50;;;;;;5093248;28;20227;-61
2023/08/16 10:31:38;;;;;;;0.00;0.00;;;32.70;90.60;;;;;;5092480;28;20172;-61
2023/08/16 10:34:07;;;;;;;0.03;0.00;;;32.70;90.80;;;;;;5093319;28;20211;-61
2023/08/16 10:36:33;;;;;;;0.00;0.00;;;32.70;91.00;;;;;;5093539;28;20195;-61
2023/08/16 10:39:00;;;;;;;0.00;0.00;;;32.80;90.40;;;;;;5093334;28;20632;-61
2023/08/16 10:41:26;;;;;;;0.20;0.20;;;32.60;90.90;;;;;;5093185;28;20263;-61
2023/08/16 10:43:53;;;;;;;0.00;0.00;;;32.70;90.60;;;;;;5093367;28;20279;-61
2023/08/16 10:46:31;;;;;;;0.00;0.00;;;32.40;90.50;;;;;;5093279;28;20205;-61
2023/08/16 10:48:58;;;;;;;0.00;0.00;;;32.30;91.10;;;;;;5093283;28;20523;-61
2023/08/16 10:51:24;;;;;;;0.00;0.00;;;32.40;91.30;;;;;;5093186;28;20254;-61
2023/08/16 10:53:50;;;;;;;0.00;0.00;;;32.40;90.80;;;;;;5093023;28;20531;-61
2023/08/16 10:56:18;;;;;;;0.00;0.00;;;32.50;91.10;;;;;;5093112;28;20164;-61
2023/08/16 10:58:49;;;;;;;0.00;0.00;;;32.60;91.00;;;;;;5093066;28;20210;-61
2023/08/16 11:01:15;;;;;;;0.00;0.00;;;32.60;90.90;;;;;;5092881;28;20710;-61
2023/08/16 11:03:43;;;;;;;0.00;0.00;;;32.70;91.00;;;;;;5092906;28;20190;-61
2023/08/16 11:06:11;;;;;;;0.00;0.00;;;32.80;90.70;;;;;;5092880;28;20241;-61
2023/08/16 11:08:43;;;;;;;0.00;0.00;;;32.80;90.40;;;;;;5092937;28;20179;-62
2023/08/16 11:11:10;;;;;;;0.00;0.00;;;32.80;90.50;;;;;;5092749;28;20632;-61
2023/08/16 11:13:38;;;;;;;0.00;0.00;;;32.80;90.40;;;;;;5092661;28;20559;-61
2023/08/16 11:16:04;;;;;;;0.00;0.00;;;32.80;90.10;;;;;;5092501;28;20184;-61
2023/08/16 11:18:33;;;;;;;0.03;0.03;;;32.70;90.20;;;;;;5092841;28;20187;-61
2023/08/16 11:20:59;;;;;;;0.10;0.10;;;32.30;90.60;;;;;;5092640;28;20172;-61
2023/08/16 11:23:39;;;;;;;0.60;0.60;;;32.10;91.20;;;;;;5092462;28;20192;-61
2023/08/16 11:26:06;;;;;;;0.00;0.00;;;32.20;92.00;;;;;;5092424;28;20172;-61
2023/08/16 11:28:33;;;;;;;0.00;0.00;;;32.30;91.10;;;;;;5092293;28;20323;-61
2023/08/16 11:31:02;;;;;;;0.00;0.00;;;32.30;91.20;;;;;;5092551;28;20538;-61
2023/08/16 11:33:32;;;;;;;0.00;0.00;;;32.40;91.10;;;;;;5092456;28;20211;-62
2023/08/16 11:36:01;;;;;;;0.00;0.00;;;32.50;90.90;;;;;;5092284;28;20184;-62
2023/08/16 11:38:27;;;;;;;0.00;0.00;;;32.60;91.40;;;;;;5092348;28;20524;-62
2023/08/16 11:40:54;;;;;;;0.00;0.00;;;32.90;90.40;;;;;;5092392;28;20175;-62
2023/08/16 11:43:28;;;;;;;0.00;0.00;;;33.00;90.10;;;;;;5092035;28;20635;-62
2023/08/16 11:45:55;;;;;;;0.00;0.00;;;33.00;90.30;;;;;;5092376;28;20259;-61
2023/08/16 11:48:21;;;;;;;0.00;0.00;;;33.00;89.40;;;;;;5092248;28;20176;-61
2023/08/16 11:50:48;;;;;;;0.30;0.20;;;33.00;89.30;;;;;;5092013;28;20182;-61
2023/08/16 11:53:18;;;;;;;0.00;0.00;;;33.10;89.80;;;;;;5091977;28;20207;-63
2023/08/16 11:55:58;;;;;;;0.00;0.00;;;33.30;89.80;;;;;;5092062;28;20187;-61
2023/08/16 11:58:25;;;;;;;0.00;0.00;;;33.50;89.40;;;;;;5092008;28;20178;-61
2023/08/16 12:00:51;;;;;;;0.00;0.00;;;33.50;87.60;;;;;;5092050;28;20195;-62
2023/08/16 12:03:17;;;;;;;0.00;0.00;;;33.40;88.00;;;;;;5091937;28;20659;-62
2023/08/16 12:05:45;;;;;;;0.00;0.00;;;33.50;87.60;;;;;;5091820;28;20595;-62
2023/08/16 12:08:12;;;;;;;0.03;0.03;;;33.60;87.10;;;;;;5091826;28;20179;-61
2023/08/16 12:10:39;;;;;;;0.00;0.00;;;33.70;85.80;;;;;;5091923;28;20171;-62
2023/08/16 12:13:14;;;;;;;0.00;0.00;;;33.70;85.50;;;;;;5091526;28;20203;-61
2023/08/16 12:15:41;;;;;;;0.00;0.00;;;33.70;85.90;;;;;;5091872;28;20179;-61
2023/08/16 12:18:06;;;;;;;0.00;0.00;;;33.80;86.30;;;;;;5091587;28;20228;-61
2023/08/16 12:20:32;;;;;;;0.10;0.10;;;33.90;87.60;;;;;;5091828;28;20172;-61
2023/08/16 12:22:58;;;;;;;0.00;0.00;;;34.20;86.40;;;;;;5091725;28;20328;-61
2023/08/16 12:25:24;;;;;;;0.00;0.00;;;34.30;84.50;;;;;;5091588;28;20168;-61
2023/08/16 12:27:50;;;;;;;0.00;0.00;;;34.30;82.40;;;;;;5091710;28;20183;-61
2023/08/16 12:30:15;;;;;;;0.00;0.00;;;34.20;82.00;;;;;;5091465;28;20800;-62
2023/08/16 12:32:41;;;;;;;0.00;0.00;;;34.20;81.20;;;;;;5091632;28;20198;-61
2023/08/16 12:35:07;;;;;;;0.00;0.00;;;34.20;81.00;;;;;;5091473;28;20682;-61
2023/08/16 12:37:33;;;;;;;0.00;0.00;;;34.10;81.20;;;;;;5091575;28;20713;-61
2023/08/16 12:39:58;;;;;;;0.00;0.00;;;34.00;82.20;;;;;;5091573;28;20179;-61
2023/08/16 12:42:24;;;;;;;0.08;0.08;;;33.90;81.90;;;;;;5091510;28;20176;-61
2023/08/16 12:44:49;;;;;;;0.00;0.00;;;33.70;83.20;;;;;;5091629;28;20178;-61